sensor_id;sensor_type;location;lat;lon;timestamp;pressure;altitude;pressure_sealevel;temperature
18704;BMP180;9481;48.796;9.210;2022-08-03T00:02:24;96707.00;;;27.60
18704;BMP180;9481;48.796;9.210;2022-08-03T00:04:49;96708.00;;;27.50
18704;BMP180;9481;48.796;9.210;2022-08-03T00:07:15;96712.00;;;27.50
18704;BMP180;9481;48.796;9.210;2022-08-03T00:09:41;96710.00;;;27.50
18704;BMP180;9481;48.796;9.210;2022-08-03T00:12:07;96710.00;;;27.50
18704;BMP180;9481;48.796;9.210;2022-08-03T00:14:34;96703.00;;;27.40
18704;BMP180;9481;48.796;9.210;2022-08-03T00:16:59;96705.00;;;27.40
18704;BMP180;9481;48.796;9.210;2022-08-03T00:19:25;96708.00;;;27.40
18704;BMP180;9481;48.796;9.210;2022-08-03T00:21:51;96708.00;;;27.40
18704;BMP180;9481;48.796;9.210;2022-08-03T00:24:16;96709.00;;;27.40
18704;BMP180;9481;48.796;9.210;2022-08-03T00:26:42;96697.00;;;27.30
18704;BMP180;9481;48.796;9.210;2022-08-03T00:29:08;96698.00;;;27.30
18704;BMP180;9481;48.796;9.210;2022-08-03T00:31:33;96698.00;;;27.30
18704;BMP180;9481;48.796;9.210;2022-08-03T00:33:59;96692.00;;;27.30
18704;BMP180;9481;48.796;9.210;2022-08-03T00:36:25;96690.00;;;27.20
18704;BMP180;9481;48.796;9.210;2022-08-03T00:38:51;96692.00;;;27.20
18704;BMP180;9481;48.796;9.210;2022-08-03T00:41:17;96689.00;;;27.20
18704;BMP180;9481;48.796;9.210;2022-08-03T00:43:42;96697.00;;;27.20
18704;BMP180;9481;48.796;9.210;2022-08-03T00:46:09;96693.00;;;27.20
18704;BMP180;9481;48.796;9.210;2022-08-03T00:48:35;96696.00;;;27.10
18704;BMP180;9481;48.796;9.210;2022-08-03T00:51:01;96697.00;;;27.10
18704;BMP180;9481;48.796;9.210;2022-08-03T00:53:27;96689.00;;;27.10
18704;BMP180;9481;48.796;9.210;2022-08-03T00:55:53;96698.00;;;27.10
18704;BMP180;9481;48.796;9.210;2022-08-03T00:58:19;96694.00;;;27.10
18704;BMP180;9481;48.796;9.210;2022-08-03T01:00:45;96696.00;;;27.10
18704;BMP180;9481;48.796;9.210;2022-08-03T01:03:11;96694.00;;;27.00
18704;BMP180;9481;48.796;9.210;2022-08-03T01:14:45;96687.00;;;26.80
18704;BMP180;9481;48.796;9.210;2022-08-03T01:17:31;96683.00;;;26.80
18704;BMP180;9481;48.796;9.210;2022-08-03T01:20:07;96677.00;;;26.80
18704;BMP180;9481;48.796;9.210;2022-08-03T01:23:02;96681.00;;;26.70
18704;BMP180;9481;48.796;9.210;2022-08-03T01:29:00;96678.00;;;26.70
18704;BMP180;9481;48.796;9.210;2022-08-03T01:31:40;96674.00;;;26.70
18704;BMP180;9481;48.796;9.210;2022-08-03T01:34:11;96672.00;;;26.70
18704;BMP180;9481;48.796;9.210;2022-08-03T01:36:43;96663.00;;;26.70
18704;BMP180;9481;48.796;9.210;2022-08-03T01:39:14;96667.00;;;26.70
18704;BMP180;9481;48.796;9.210;2022-08-03T01:42:00;96662.00;;;26.60
18704;BMP180;9481;48.796;9.210;2022-08-03T01:44:36;96659.00;;;26.60
18704;BMP180;9481;48.796;9.210;2022-08-03T01:47:03;96660.00;;;26.60
18704;BMP180;9481;48.796;9.210;2022-08-03T01:49:37;96662.00;;;26.60
18704;BMP180;9481;48.796;9.210;2022-08-03T01:52:05;96655.00;;;26.60
18704;BMP180;9481;48.796;9.210;2022-08-03T01:54:37;96658.00;;;26.60
18704;BMP180;9481;48.796;9.210;2022-08-03T01:57:05;96653.00;;;26.60
18704;BMP180;9481;48.796;9.210;2022-08-03T01:59:35;96654.00;;;26.60
18704;BMP180;9481;48.796;9.210;2022-08-03T02:02:04;96653.00;;;26.50
18704;BMP180;9481;48.796;9.210;2022-08-03T02:04:31;96650.00;;;26.50
18704;BMP180;9481;48.796;9.210;2022-08-03T02:07:00;96648.00;;;26.50
18704;BMP180;9481;48.796;9.210;2022-08-03T02:09:28;96650.00;;;26.50
18704;BMP180;9481;48.796;9.210;2022-08-03T02:11:56;96652.00;;;26.50
18704;BMP180;9481;48.796;9.210;2022-08-03T02:14:22;96643.00;;;26.50
18704;BMP180;9481;48.796;9.210;2022-08-03T02:16:49;96657.00;;;26.50
18704;BMP180;9481;48.796;9.210;2022-08-03T02:19:17;96652.00;;;26.50
18704;BMP180;9481;48.796;9.210;2022-08-03T02:21:45;96657.00;;;26.50
18704;BMP180;9481;48.796;9.210;2022-08-03T02:24:11;96652.00;;;26.50
18704;BMP180;9481;48.796;9.210;2022-08-03T02:26:39;96651.00;;;26.40
18704;BMP180;9481;48.796;9.210;2022-08-03T02:29:14;96656.00;;;26.40
18704;BMP180;9481;48.796;9.210;2022-08-03T02:31:44;96654.00;;;26.40
18704;BMP180;9481;48.796;9.210;2022-08-03T02:34:14;96655.00;;;26.40
18704;BMP180;9481;48.796;9.210;2022-08-03T02:36:45;96655.00;;;26.30
18704;BMP180;9481;48.796;9.210;2022-08-03T02:39:16;96657.00;;;26.30
18704;BMP180;9481;48.796;9.210;2022-08-03T02:41:49;96652.00;;;26.30
18704;BMP180;9481;48.796;9.210;2022-08-03T02:44:22;96657.00;;;26.20
18704;BMP180;9481;48.796;9.210;2022-08-03T02:46:56;96650.00;;;26.20
18704;BMP180;9481;48.796;9.210;2022-08-03T02:49:25;96640.00;;;26.20
18704;BMP180;9481;48.796;9.210;2022-08-03T02:51:53;96648.00;;;26.20
18704;BMP180;9481;48.796;9.210;2022-08-03T02:54:22;96645.00;;;26.20
18704;BMP180;9481;48.796;9.210;2022-08-03T02:56:51;96643.00;;;26.10
18704;BMP180;9481;48.796;9.210;2022-08-03T02:59:19;96646.00;;;26.10
18704;BMP180;9481;48.796;9.210;2022-08-03T03:01:46;96647.00;;;26.10
18704;BMP180;9481;48.796;9.210;2022-08-03T03:04:14;96642.00;;;26.10
18704;BMP180;9481;48.796;9.210;2022-08-03T03:06:40;96640.00;;;26.10
18704;BMP180;9481;48.796;9.210;2022-08-03T03:09:07;96650.00;;;26.10
18704;BMP180;9481;48.796;9.210;2022-08-03T03:11:37;96641.00;;;26.00
18704;BMP180;9481;48.796;9.210;2022-08-03T03:14:03;96645.00;;;26.00
18704;BMP180;9481;48.796;9.210;2022-08-03T03:16:31;96641.00;;;26.00
18704;BMP180;9481;48.796;9.210;2022-08-03T03:18:58;96651.00;;;26.00
18704;BMP180;9481;48.796;9.210;2022-08-03T03:21:26;96649.00;;;26.00
18704;BMP180;9481;48.796;9.210;2022-08-03T03:23:53;96642.00;;;26.00
18704;BMP180;9481;48.796;9.210;2022-08-03T03:26:19;96638.00;;;26.00
18704;BMP180;9481;48.796;9.210;2022-08-03T03:28:45;96635.00;;;26.00
18704;BMP180;9481;48.796;9.210;2022-08-03T03:31:11;96633.00;;;25.90
18704;BMP180;9481;48.796;9.210;2022-08-03T03:33:38;96635.00;;;25.90
18704;BMP180;9481;48.796;9.210;2022-08-03T03:36:05;96638.00;;;25.90
18704;BMP180;9481;48.796;9.210;2022-08-03T03:38:32;96633.00;;;25.90
18704;BMP180;9481;48.796;9.210;2022-08-03T03:40:59;96636.00;;;25.90
18704;BMP180;9481;48.796;9.210;2022-08-03T03:43:24;96634.00;;;25.80
18704;BMP180;9481;48.796;9.210;2022-08-03T03:45:51;96631.00;;;25.80
18704;BMP180;9481;48.796;9.210;2022-08-03T03:48:19;96639.00;;;25.80
18704;BMP180;9481;48.796;9.210;2022-08-03T03:50:48;96638.00;;;25.80
18704;BMP180;9481;48.796;9.210;2022-08-03T03:53:14;96636.00;;;25.80
18704;BMP180;9481;48.796;9.210;2022-08-03T03:55:40;96636.00;;;25.80
18704;BMP180;9481;48.796;9.210;2022-08-03T03:58:07;96637.00;;;25.80
18704;BMP180;9481;48.796;9.210;2022-08-03T04:00:33;96641.00;;;25.80
18704;BMP180;9481;48.796;9.210;2022-08-03T04:02:59;96631.00;;;25.70
18704;BMP180;9481;48.796;9.210;2022-08-03T04:05:25;96631.00;;;25.70
18704;BMP180;9481;48.796;9.210;2022-08-03T04:08:16;96645.00;;;25.70
18704;BMP180;9481;48.796;9.210;2022-08-03T04:11:23;96636.00;;;25.60
18704;BMP180;9481;48.796;9.210;2022-08-03T04:14:04;96637.00;;;25.60
18704;BMP180;9481;48.796;9.210;2022-08-03T04:16:36;96640.00;;;25.60
18704;BMP180;9481;48.796;9.210;2022-08-03T04:19:42;96644.00;;;25.60
18704;BMP180;9481;48.796;9.210;2022-08-03T04:22:13;96644.00;;;25.70
18704;BMP180;9481;48.796;9.210;2022-08-03T04:24:47;96640.00;;;25.60
18704;BMP180;9481;48.796;9.210;2022-08-03T04:27:23;96645.00;;;25.60
18704;BMP180;9481;48.796;9.210;2022-08-03T04:29:53;96647.00;;;25.70
18704;BMP180;9481;48.796;9.210;2022-08-03T04:32:21;96645.00;;;25.70
18704;BMP180;9481;48.796;9.210;2022-08-03T04:34:50;96647.00;;;25.70
18704;BMP180;9481;48.796;9.210;2022-08-03T04:37:34;96650.00;;;25.60
18704;BMP180;9481;48.796;9.210;2022-08-03T04:40:14;96657.00;;;25.60
18704;BMP180;9481;48.796;9.210;2022-08-03T04:42:41;96658.00;;;25.60
18704;BMP180;9481;48.796;9.210;2022-08-03T04:45:12;96659.00;;;25.60
18704;BMP180;9481;48.796;9.210;2022-08-03T04:47:39;96661.00;;;25.60
18704;BMP180;9481;48.796;9.210;2022-08-03T04:50:07;96662.00;;;25.60
18704;BMP180;9481;48.796;9.210;2022-08-03T04:52:34;96661.00;;;25.60
18704;BMP180;9481;48.796;9.210;2022-08-03T04:55:00;96669.00;;;25.60
18704;BMP180;9481;48.796;9.210;2022-08-03T04:57:25;96665.00;;;25.60
18704;BMP180;9481;48.796;9.210;2022-08-03T04:59:53;96658.00;;;25.60
18704;BMP180;9481;48.796;9.210;2022-08-03T05:02:20;96670.00;;;25.60
18704;BMP180;9481;48.796;9.210;2022-08-03T05:04:46;96668.00;;;25.60
18704;BMP180;9481;48.796;9.210;2022-08-03T05:07:12;96672.00;;;25.60
18704;BMP180;9481;48.796;9.210;2022-08-03T05:09:38;96665.00;;;25.60
18704;BMP180;9481;48.796;9.210;2022-08-03T05:12:05;96665.00;;;25.70
18704;BMP180;9481;48.796;9.210;2022-08-03T05:14:36;96666.00;;;25.70
18704;BMP180;9481;48.796;9.210;2022-08-03T05:17:07;96661.00;;;25.70
18704;BMP180;9481;48.796;9.210;2022-08-03T05:19:33;96665.00;;;25.70
18704;BMP180;9481;48.796;9.210;2022-08-03T05:21:59;96670.00;;;25.80
18704;BMP180;9481;48.796;9.210;2022-08-03T05:24:25;96668.00;;;25.80
18704;BMP180;9481;48.796;9.210;2022-08-03T05:26:52;96674.00;;;25.80
18704;BMP180;9481;48.796;9.210;2022-08-03T05:29:17;96677.00;;;25.90
18704;BMP180;9481;48.796;9.210;2022-08-03T05:31:43;96675.00;;;25.90
18704;BMP180;9481;48.796;9.210;2022-08-03T05:34:08;96669.00;;;25.90
18704;BMP180;9481;48.796;9.210;2022-08-03T05:36:34;96674.00;;;26.00
18704;BMP180;9481;48.796;9.210;2022-08-03T05:39:00;96669.00;;;26.00
18704;BMP180;9481;48.796;9.210;2022-08-03T05:41:26;96679.00;;;26.00
18704;BMP180;9481;48.796;9.210;2022-08-03T05:43:53;96679.00;;;26.00
18704;BMP180;9481;48.796;9.210;2022-08-03T05:46:20;96675.00;;;26.10
18704;BMP180;9481;48.796;9.210;2022-08-03T05:48:46;96681.00;;;26.10
18704;BMP180;9481;48.796;9.210;2022-08-03T05:51:12;96679.00;;;26.20
18704;BMP180;9481;48.796;9.210;2022-08-03T05:53:42;96677.00;;;26.20
18704;BMP180;9481;48.796;9.210;2022-08-03T05:56:08;96674.00;;;26.30
18704;BMP180;9481;48.796;9.210;2022-08-03T05:58:34;96675.00;;;26.40
18704;BMP180;9481;48.796;9.210;2022-08-03T06:00:59;96672.00;;;26.50
18704;BMP180;9481;48.796;9.210;2022-08-03T06:03:25;96675.00;;;26.50
18704;BMP180;9481;48.796;9.210;2022-08-03T06:05:53;96676.00;;;26.60
18704;BMP180;9481;48.796;9.210;2022-08-03T06:08:21;96676.00;;;26.60
18704;BMP180;9481;48.796;9.210;2022-08-03T06:10:48;96683.00;;;26.70
18704;BMP180;9481;48.796;9.210;2022-08-03T06:13:14;96682.00;;;26.70
18704;BMP180;9481;48.796;9.210;2022-08-03T06:15:40;96677.00;;;26.80
18704;BMP180;9481;48.796;9.210;2022-08-03T06:18:06;96679.00;;;26.80
18704;BMP180;9481;48.796;9.210;2022-08-03T06:20:32;96685.00;;;26.90
18704;BMP180;9481;48.796;9.210;2022-08-03T06:22:58;96685.00;;;27.00
18704;BMP180;9481;48.796;9.210;2022-08-03T06:25:25;96685.00;;;27.00
18704;BMP180;9481;48.796;9.210;2022-08-03T06:27:51;96682.00;;;27.10
18704;BMP180;9481;48.796;9.210;2022-08-03T06:30:17;96686.00;;;27.10
18704;BMP180;9481;48.796;9.210;2022-08-03T06:32:43;96689.00;;;27.20
18704;BMP180;9481;48.796;9.210;2022-08-03T06:35:09;96684.00;;;27.20
18704;BMP180;9481;48.796;9.210;2022-08-03T06:37:47;96681.00;;;27.30
18704;BMP180;9481;48.796;9.210;2022-08-03T06:40:19;96687.00;;;27.40
18704;BMP180;9481;48.796;9.210;2022-08-03T06:42:45;96684.00;;;27.40
18704;BMP180;9481;48.796;9.210;2022-08-03T06:45:11;96688.00;;;27.50
18704;BMP180;9481;48.796;9.210;2022-08-03T06:47:38;96693.00;;;27.60
18704;BMP180;9481;48.796;9.210;2022-08-03T06:50:06;96688.00;;;27.70
18704;BMP180;9481;48.796;9.210;2022-08-03T06:52:32;96689.00;;;27.80
18704;BMP180;9481;48.796;9.210;2022-08-03T06:54:57;96693.00;;;27.90
18704;BMP180;9481;48.796;9.210;2022-08-03T06:57:23;96696.00;;;27.90
18704;BMP180;9481;48.796;9.210;2022-08-03T06:59:49;96686.00;;;28.00
18704;BMP180;9481;48.796;9.210;2022-08-03T07:02:16;96694.00;;;28.10
18704;BMP180;9481;48.796;9.210;2022-08-03T07:04:43;96699.00;;;28.20
18704;BMP180;9481;48.796;9.210;2022-08-03T07:07:09;96700.00;;;28.20
18704;BMP180;9481;48.796;9.210;2022-08-03T07:09:35;96702.00;;;28.30
18704;BMP180;9481;48.796;9.210;2022-08-03T07:12:02;96698.00;;;28.30
18704;BMP180;9481;48.796;9.210;2022-08-03T07:14:28;96703.00;;;28.40
18704;BMP180;9481;48.796;9.210;2022-08-03T07:16:54;96705.00;;;28.50
18704;BMP180;9481;48.796;9.210;2022-08-03T07:19:20;96701.00;;;28.50
18704;BMP180;9481;48.796;9.210;2022-08-03T07:21:45;96698.00;;;28.60
18704;BMP180;9481;48.796;9.210;2022-08-03T07:24:11;96694.00;;;28.70
18704;BMP180;9481;48.796;9.210;2022-08-03T07:26:37;96701.00;;;28.80
18704;BMP180;9481;48.796;9.210;2022-08-03T07:29:02;96697.00;;;28.90
18704;BMP180;9481;48.796;9.210;2022-08-03T07:31:28;96697.00;;;28.90
18704;BMP180;9481;48.796;9.210;2022-08-03T07:33:54;96704.00;;;29.00
18704;BMP180;9481;48.796;9.210;2022-08-03T07:36:19;96704.00;;;29.10
18704;BMP180;9481;48.796;9.210;2022-08-03T07:38:45;96700.00;;;29.20
18704;BMP180;9481;48.796;9.210;2022-08-03T07:41:11;96695.00;;;29.20
18704;BMP180;9481;48.796;9.210;2022-08-03T07:43:36;96701.00;;;29.30
18704;BMP180;9481;48.796;9.210;2022-08-03T07:46:02;96714.00;;;29.30
18704;BMP180;9481;48.796;9.210;2022-08-03T07:48:28;96713.00;;;29.40
18704;BMP180;9481;48.796;9.210;2022-08-03T07:50:53;96701.00;;;29.50
18704;BMP180;9481;48.796;9.210;2022-08-03T07:53:19;96709.00;;;29.60
18704;BMP180;9481;48.796;9.210;2022-08-03T07:55:45;96701.00;;;29.60
18704;BMP180;9481;48.796;9.210;2022-08-03T07:58:12;96695.00;;;29.70
18704;BMP180;9481;48.796;9.210;2022-08-03T08:00:41;96703.00;;;29.80
18704;BMP180;9481;48.796;9.210;2022-08-03T08:03:07;96704.00;;;29.90
18704;BMP180;9481;48.796;9.210;2022-08-03T08:05:33;96697.00;;;29.90
18704;BMP180;9481;48.796;9.210;2022-08-03T08:08:00;96696.00;;;30.00
18704;BMP180;9481;48.796;9.210;2022-08-03T08:10:26;96694.00;;;30.10
18704;BMP180;9481;48.796;9.210;2022-08-03T08:12:53;96703.00;;;30.20
18704;BMP180;9481;48.796;9.210;2022-08-03T08:15:19;96700.00;;;30.20
18704;BMP180;9481;48.796;9.210;2022-08-03T08:17:55;96699.00;;;30.30
18704;BMP180;9481;48.796;9.210;2022-08-03T08:20:25;96693.00;;;30.40
18704;BMP180;9481;48.796;9.210;2022-08-03T08:22:51;96695.00;;;30.50
18704;BMP180;9481;48.796;9.210;2022-08-03T08:25:17;96693.00;;;30.50
18704;BMP180;9481;48.796;9.210;2022-08-03T08:27:45;96698.00;;;30.60
18704;BMP180;9481;48.796;9.210;2022-08-03T08:30:13;96702.00;;;30.70
18704;BMP180;9481;48.796;9.210;2022-08-03T08:32:40;96696.00;;;30.70
18704;BMP180;9481;48.796;9.210;2022-08-03T08:35:07;96703.00;;;30.80
18704;BMP180;9481;48.796;9.210;2022-08-03T08:37:33;96708.00;;;30.90
18704;BMP180;9481;48.796;9.210;2022-08-03T08:40:00;96696.00;;;31.00
18704;BMP180;9481;48.796;9.210;2022-08-03T08:42:26;96696.00;;;31.10
18704;BMP180;9481;48.796;9.210;2022-08-03T08:44:52;96700.00;;;31.20
18704;BMP180;9481;48.796;9.210;2022-08-03T08:47:18;96702.00;;;31.20
18704;BMP180;9481;48.796;9.210;2022-08-03T08:49:51;96701.00;;;31.30
18704;BMP180;9481;48.796;9.210;2022-08-03T08:52:23;96699.00;;;31.40
18704;BMP180;9481;48.796;9.210;2022-08-03T08:54:49;96693.00;;;31.50
18704;BMP180;9481;48.796;9.210;2022-08-03T08:57:17;96695.00;;;31.60
18704;BMP180;9481;48.796;9.210;2022-08-03T08:59:44;96696.00;;;31.60
18704;BMP180;9481;48.796;9.210;2022-08-03T09:02:10;96697.00;;;31.70
18704;BMP180;9481;48.796;9.210;2022-08-03T09:04:38;96701.00;;;31.80
18704;BMP180;9481;48.796;9.210;2022-08-03T09:07:05;96703.00;;;31.80
18704;BMP180;9481;48.796;9.210;2022-08-03T09:09:31;96705.00;;;31.90
18704;BMP180;9481;48.796;9.210;2022-08-03T09:11:56;96701.00;;;32.00
18704;BMP180;9481;48.796;9.210;2022-08-03T09:14:22;96699.00;;;32.10
18704;BMP180;9481;48.796;9.210;2022-08-03T09:17:01;96707.00;;;32.10
18704;BMP180;9481;48.796;9.210;2022-08-03T09:19:29;96701.00;;;32.20
18704;BMP180;9481;48.796;9.210;2022-08-03T09:22:16;96700.00;;;32.20
18704;BMP180;9481;48.796;9.210;2022-08-03T09:25:04;96687.00;;;32.30
18704;BMP180;9481;48.796;9.210;2022-08-03T09:27:43;96687.00;;;32.40
18704;BMP180;9481;48.796;9.210;2022-08-03T09:30:17;96701.00;;;32.60
18704;BMP180;9481;48.796;9.210;2022-08-03T09:32:44;96693.00;;;32.70
18704;BMP180;9481;48.796;9.210;2022-08-03T09:35:12;96696.00;;;32.80
18704;BMP180;9481;48.796;9.210;2022-08-03T09:37:39;96696.00;;;32.90
18704;BMP180;9481;48.796;9.210;2022-08-03T09:40:05;96699.00;;;33.00
18704;BMP180;9481;48.796;9.210;2022-08-03T09:42:32;96689.00;;;33.10
18704;BMP180;9481;48.796;9.210;2022-08-03T09:45:03;96695.00;;;33.20
18704;BMP180;9481;48.796;9.210;2022-08-03T09:47:32;96702.00;;;33.30
18704;BMP180;9481;48.796;9.210;2022-08-03T09:50:06;96696.00;;;33.40
18704;BMP180;9481;48.796;9.210;2022-08-03T09:52:37;96696.00;;;33.50
18704;BMP180;9481;48.796;9.210;2022-08-03T09:55:11;96690.00;;;33.50
18704;BMP180;9481;48.796;9.210;2022-08-03T09:57:38;96695.00;;;33.70
18704;BMP180;9481;48.796;9.210;2022-08-03T10:00:15;96697.00;;;33.70
18704;BMP180;9481;48.796;9.210;2022-08-03T10:02:43;96693.00;;;33.80
18704;BMP180;9481;48.796;9.210;2022-08-03T10:05:11;96688.00;;;33.90
18704;BMP180;9481;48.796;9.210;2022-08-03T10:07:49;96689.00;;;34.00
18704;BMP180;9481;48.796;9.210;2022-08-03T10:10:16;96685.00;;;34.10
18704;BMP180;9481;48.796;9.210;2022-08-03T10:12:44;96684.00;;;34.20
18704;BMP180;9481;48.796;9.210;2022-08-03T10:15:10;96686.00;;;34.30
18704;BMP180;9481;48.796;9.210;2022-08-03T10:17:36;96682.00;;;34.40
18704;BMP180;9481;48.796;9.210;2022-08-03T10:20:06;96686.00;;;34.40
18704;BMP180;9481;48.796;9.210;2022-08-03T10:22:35;96687.00;;;34.50
18704;BMP180;9481;48.796;9.210;2022-08-03T10:25:08;96680.00;;;34.60
18704;BMP180;9481;48.796;9.210;2022-08-03T10:27:38;96686.00;;;34.70
18704;BMP180;9481;48.796;9.210;2022-08-03T10:30:10;96677.00;;;34.70
18704;BMP180;9481;48.796;9.210;2022-08-03T10:32:59;96674.00;;;34.80
18704;BMP180;9481;48.796;9.210;2022-08-03T10:35:28;96676.00;;;34.90
18704;BMP180;9481;48.796;9.210;2022-08-03T10:37:57;96672.00;;;35.00
18704;BMP180;9481;48.796;9.210;2022-08-03T10:40:28;96666.00;;;35.10
18704;BMP180;9481;48.796;9.210;2022-08-03T10:43:03;96665.00;;;35.20
18704;BMP180;9481;48.796;9.210;2022-08-03T10:45:35;96665.00;;;35.30
18704;BMP180;9481;48.796;9.210;2022-08-03T10:48:04;96661.00;;;35.40
18704;BMP180;9481;48.796;9.210;2022-08-03T10:50:30;96656.00;;;35.40
18704;BMP180;9481;48.796;9.210;2022-08-03T10:53:01;96662.00;;;35.50
18704;BMP180;9481;48.796;9.210;2022-08-03T10:55:37;96658.00;;;35.50
18704;BMP180;9481;48.796;9.210;2022-08-03T11:01:08;96657.00;;;35.60
18704;BMP180;9481;48.796;9.210;2022-08-03T11:06:22;96653.00;;;35.70
18704;BMP180;9481;48.796;9.210;2022-08-03T11:11:40;96652.00;;;35.90
18704;BMP180;9481;48.796;9.210;2022-08-03T11:14:11;96658.00;;;35.90
18704;BMP180;9481;48.796;9.210;2022-08-03T11:16:45;96655.00;;;35.90
18704;BMP180;9481;48.796;9.210;2022-08-03T11:19:18;96650.00;;;35.90
18704;BMP180;9481;48.796;9.210;2022-08-03T11:30:08;96644.00;;;36.10
18704;BMP180;9481;48.796;9.210;2022-08-03T11:35:13;96640.00;;;36.30
18704;BMP180;9481;48.796;9.210;2022-08-03T11:46:11;96637.00;;;36.60
18704;BMP180;9481;48.796;9.210;2022-08-03T11:48:49;96636.00;;;36.70
18704;BMP180;9481;48.796;9.210;2022-08-03T11:51:27;96635.00;;;36.70
18704;BMP180;9481;48.796;9.210;2022-08-03T11:53:56;96640.00;;;36.80
18704;BMP180;9481;48.796;9.210;2022-08-03T11:56:23;96632.00;;;36.90
18704;BMP180;9481;48.796;9.210;2022-08-03T11:58:52;96628.00;;;36.90
18704;BMP180;9481;48.796;9.210;2022-08-03T12:01:20;96634.00;;;37.00
18704;BMP180;9481;48.796;9.210;2022-08-03T12:03:47;96634.00;;;37.00
18704;BMP180;9481;48.796;9.210;2022-08-03T12:06:16;96628.00;;;37.00
18704;BMP180;9481;48.796;9.210;2022-08-03T12:08:43;96627.00;;;37.10
18704;BMP180;9481;48.796;9.210;2022-08-03T12:11:12;96620.00;;;37.10
18704;BMP180;9481;48.796;9.210;2022-08-03T12:16:06;96628.00;;;37.30
18704;BMP180;9481;48.796;9.210;2022-08-03T12:18:31;96621.00;;;37.30
18704;BMP180;9481;48.796;9.210;2022-08-03T12:21:10;96623.00;;;37.30
18704;BMP180;9481;48.796;9.210;2022-08-03T12:23:37;96627.00;;;37.30
18704;BMP180;9481;48.796;9.210;2022-08-03T12:26:09;96626.00;;;37.40
18704;BMP180;9481;48.796;9.210;2022-08-03T12:28:36;96619.00;;;37.40
18704;BMP180;9481;48.796;9.210;2022-08-03T12:31:06;96616.00;;;37.40
18704;BMP180;9481;48.796;9.210;2022-08-03T12:34:02;96617.00;;;37.40
18704;BMP180;9481;48.796;9.210;2022-08-03T12:36:31;96619.00;;;37.50
18704;BMP180;9481;48.796;9.210;2022-08-03T12:39:06;96614.00;;;37.50
18704;BMP180;9481;48.796;9.210;2022-08-03T12:41:35;96613.00;;;37.50
18704;BMP180;9481;48.796;9.210;2022-08-03T12:44:07;96610.00;;;37.40
18704;BMP180;9481;48.796;9.210;2022-08-03T12:46:35;96610.00;;;37.50
18704;BMP180;9481;48.796;9.210;2022-08-03T12:49:09;96607.00;;;37.50
18704;BMP180;9481;48.796;9.210;2022-08-03T12:54:15;96606.00;;;37.50
18704;BMP180;9481;48.796;9.210;2022-08-03T12:57:01;96606.00;;;37.50
18704;BMP180;9481;48.796;9.210;2022-08-03T12:59:54;96599.00;;;37.50
18704;BMP180;9481;48.796;9.210;2022-08-03T13:02:34;96594.00;;;37.60
18704;BMP180;9481;48.796;9.210;2022-08-03T13:05:11;96589.00;;;37.60
18704;BMP180;9481;48.796;9.210;2022-08-03T13:07:44;96593.00;;;37.70
18704;BMP180;9481;48.796;9.210;2022-08-03T13:10:11;96595.00;;;37.70
18704;BMP180;9481;48.796;9.210;2022-08-03T13:12:48;96598.00;;;37.70
18704;BMP180;9481;48.796;9.210;2022-08-03T13:15:14;96599.00;;;37.70
18704;BMP180;9481;48.796;9.210;2022-08-03T13:17:41;96591.00;;;37.70
18704;BMP180;9481;48.796;9.210;2022-08-03T13:20:07;96591.00;;;37.80
18704;BMP180;9481;48.796;9.210;2022-08-03T13:22:33;96590.00;;;37.80
18704;BMP180;9481;48.796;9.210;2022-08-03T13:24:59;96595.00;;;37.70
18704;BMP180;9481;48.796;9.210;2022-08-03T13:27:29;96589.00;;;37.80
18704;BMP180;9481;48.796;9.210;2022-08-03T13:29:57;96592.00;;;37.80
18704;BMP180;9481;48.796;9.210;2022-08-03T13:32:23;96583.00;;;37.80
18704;BMP180;9481;48.796;9.210;2022-08-03T13:34:49;96588.00;;;37.90
18704;BMP180;9481;48.796;9.210;2022-08-03T13:37:15;96583.00;;;37.90
18704;BMP180;9481;48.796;9.210;2022-08-03T13:39:41;96580.00;;;37.90
18704;BMP180;9481;48.796;9.210;2022-08-03T13:42:07;96578.00;;;37.90
18704;BMP180;9481;48.796;9.210;2022-08-03T13:44:33;96575.00;;;37.90
18704;BMP180;9481;48.796;9.210;2022-08-03T13:47:02;96577.00;;;37.90
18704;BMP180;9481;48.796;9.210;2022-08-03T13:49:28;96581.00;;;37.90
18704;BMP180;9481;48.796;9.210;2022-08-03T13:51:55;96584.00;;;37.80
18704;BMP180;9481;48.796;9.210;2022-08-03T13:54:22;96579.00;;;37.80
18704;BMP180;9481;48.796;9.210;2022-08-03T13:56:48;96570.00;;;37.80
18704;BMP180;9481;48.796;9.210;2022-08-03T13:59:25;96568.00;;;37.80
18704;BMP180;9481;48.796;9.210;2022-08-03T14:01:53;96570.00;;;37.80
18704;BMP180;9481;48.796;9.210;2022-08-03T14:04:19;96561.00;;;37.80
18704;BMP180;9481;48.796;9.210;2022-08-03T14:06:45;96561.00;;;37.70
18704;BMP180;9481;48.796;9.210;2022-08-03T14:09:13;96559.00;;;37.70
18704;BMP180;9481;48.796;9.210;2022-08-03T14:11:43;96560.00;;;37.70
18704;BMP180;9481;48.796;9.210;2022-08-03T14:14:10;96559.00;;;37.60
18704;BMP180;9481;48.796;9.210;2022-08-03T14:16:36;96554.00;;;37.60
18704;BMP180;9481;48.796;9.210;2022-08-03T14:19:03;96548.00;;;37.60
18704;BMP180;9481;48.796;9.210;2022-08-03T14:21:29;96543.00;;;37.60
18704;BMP180;9481;48.796;9.210;2022-08-03T14:23:54;96550.00;;;37.60
18704;BMP180;9481;48.796;9.210;2022-08-03T14:26:21;96540.00;;;37.60
18704;BMP180;9481;48.796;9.210;2022-08-03T14:28:47;96541.00;;;37.60
18704;BMP180;9481;48.796;9.210;2022-08-03T14:31:12;96552.00;;;37.50
18704;BMP180;9481;48.796;9.210;2022-08-03T14:33:38;96546.00;;;37.50
18704;BMP180;9481;48.796;9.210;2022-08-03T14:36:04;96542.00;;;37.50
18704;BMP180;9481;48.796;9.210;2022-08-03T14:38:30;96551.00;;;37.40
18704;BMP180;9481;48.796;9.210;2022-08-03T14:40:56;96550.00;;;37.40
18704;BMP180;9481;48.796;9.210;2022-08-03T14:43:22;96551.00;;;37.40
18704;BMP180;9481;48.796;9.210;2022-08-03T14:45:50;96542.00;;;37.30
18704;BMP180;9481;48.796;9.210;2022-08-03T14:48:20;96543.00;;;37.30
18704;BMP180;9481;48.796;9.210;2022-08-03T14:50:46;96542.00;;;37.30
18704;BMP180;9481;48.796;9.210;2022-08-03T14:53:11;96539.00;;;37.20
18704;BMP180;9481;48.796;9.210;2022-08-03T14:55:38;96530.00;;;37.10
18704;BMP180;9481;48.796;9.210;2022-08-03T14:58:03;96534.00;;;37.10
18704;BMP180;9481;48.796;9.210;2022-08-03T15:00:32;96532.00;;;37.00
18704;BMP180;9481;48.796;9.210;2022-08-03T15:02:58;96524.00;;;37.00
18704;BMP180;9481;48.796;9.210;2022-08-03T15:05:24;96524.00;;;37.00
18704;BMP180;9481;48.796;9.210;2022-08-03T15:07:49;96521.00;;;36.90
18704;BMP180;9481;48.796;9.210;2022-08-03T15:10:15;96518.00;;;36.90
18704;BMP180;9481;48.796;9.210;2022-08-03T15:12:41;96522.00;;;36.80
18704;BMP180;9481;48.796;9.210;2022-08-03T15:15:07;96516.00;;;36.80
18704;BMP180;9481;48.796;9.210;2022-08-03T15:17:33;96517.00;;;36.70